sensor_id;sensor_type;location;lat;lon;timestamp;P1;durP1;ratioP1;P2;durP2;ratioP2
50379;SDS011;37474;59.468;18.040;2023-07-13T00:01:14;4.80;;;3.83;;
50379;SDS011;37474;59.468;18.040;2023-07-13T00:03:44;4.97;;;4.07;;
50379;SDS011;37474;59.468;18.040;2023-07-13T00:06:13;4.57;;;3.90;;
50379;SDS011;37474;59.468;18.040;2023-07-13T00:08:43;6.57;;;3.42;;
50379;SDS011;37474;59.468;18.040;2023-07-13T00:11:12;4.60;;;3.80;;
50379;SDS011;37474;59.468;18.040;2023-07-13T00:13:41;7.05;;;4.00;;
50379;SDS011;37474;59.468;18.040;2023-07-13T00:16:11;5.22;;;4.10;;
50379;SDS011;37474;59.468;18.040;2023-07-13T00:18:41;5.13;;;3.75;;
50379;SDS011;37474;59.468;18.040;2023-07-13T00:21:10;3.85;;;3.50;;
50379;SDS011;37474;59.468;18.040;2023-07-13T00:23:40;6.55;;;4.15;;
50379;SDS011;37474;59.468;18.040;2023-07-13T00:26:11;4.55;;;3.95;;
50379;SDS011;37474;59.468;18.040;2023-07-13T00:28:41;4.43;;;3.70;;
50379;SDS011;37474;59.468;18.040;2023-07-13T00:31:09;4.80;;;3.28;;
50379;SDS011;37474;59.468;18.040;2023-07-13T00:33:39;7.00;;;4.10;;
50379;SDS011;37474;59.468;18.040;2023-07-13T00:36:09;5.28;;;3.60;;
50379;SDS011;37474;59.468;18.040;2023-07-13T00:38:38;3.75;;;3.35;;
50379;SDS011;37474;59.468;18.040;2023-07-13T00:41:07;3.97;;;3.58;;
50379;SDS011;37474;59.468;18.040;2023-07-13T00:43:38;4.63;;;3.75;;
50379;SDS011;37474;59.468;18.040;2023-07-13T00:48:40;5.45;;;3.50;;
50379;SDS011;37474;59.468;18.040;2023-07-13T00:51:11;5.38;;;4.13;;
50379;SDS011;37474;59.468;18.040;2023-07-13T00:53:40;5.50;;;4.30;;
50379;SDS011;37474;59.468;18.040;2023-07-13T00:56:08;7.38;;;4.53;;
50379;SDS011;37474;59.468;18.040;2023-07-13T00:58:40;4.90;;;4.03;;
50379;SDS011;37474;59.468;18.040;2023-07-13T01:01:08;4.30;;;3.90;;
50379;SDS011;37474;59.468;18.040;2023-07-13T01:03:39;4.68;;;4.20;;
50379;SDS011;37474;59.468;18.040;2023-07-13T01:06:08;6.57;;;4.13;;
50379;SDS011;37474;59.468;18.040;2023-07-13T01:08:38;9.52;;;4.30;;
50379;SDS011;37474;59.468;18.040;2023-07-13T01:11:07;5.53;;;4.22;;
50379;SDS011;37474;59.468;18.040;2023-07-13T01:13:36;6.90;;;4.20;;
50379;SDS011;37474;59.468;18.040;2023-07-13T01:16:11;4.47;;;4.07;;
50379;SDS011;37474;59.468;18.040;2023-07-13T01:18:43;4.32;;;3.60;;
50379;SDS011;37474;59.468;18.040;2023-07-13T01:21:13;4.95;;;3.90;;
50379;SDS011;37474;59.468;18.040;2023-07-13T01:23:42;4.88;;;3.67;;
50379;SDS011;37474;59.468;18.040;2023-07-13T01:26:11;4.53;;;3.58;;
50379;SDS011;37474;59.468;18.040;2023-07-13T01:28:40;4.03;;;3.60;;
50379;SDS011;37474;59.468;18.040;2023-07-13T01:31:09;3.85;;;3.10;;
50379;SDS011;37474;59.468;18.040;2023-07-13T01:33:39;4.50;;;3.30;;
50379;SDS011;37474;59.468;18.040;2023-07-13T01:36:09;5.78;;;3.20;;
50379;SDS011;37474;59.468;18.040;2023-07-13T01:38:41;5.25;;;3.30;;
50379;SDS011;37474;59.468;18.040;2023-07-13T01:43:39;6.38;;;3.33;;
50379;SDS011;37474;59.468;18.040;2023-07-13T01:46:08;5.07;;;3.15;;
50379;SDS011;37474;59.468;18.040;2023-07-13T01:48:49;3.15;;;2.85;;
50379;SDS011;37474;59.468;18.040;2023-07-13T01:51:19;5.35;;;3.20;;
50379;SDS011;37474;59.468;18.040;2023-07-13T01:53:49;6.25;;;2.80;;
50379;SDS011;37474;59.468;18.040;2023-07-13T01:56:18;5.93;;;3.22;;
50379;SDS011;37474;59.468;18.040;2023-07-13T01:58:47;5.55;;;3.17;;
50379;SDS011;37474;59.468;18.040;2023-07-13T02:01:16;4.50;;;3.22;;
50379;SDS011;37474;59.468;18.040;2023-07-13T02:03:45;4.05;;;3.03;;
50379;SDS011;37474;59.468;18.040;2023-07-13T02:06:14;3.97;;;3.30;;
50379;SDS011;37474;59.468;18.040;2023-07-13T02:08:43;8.07;;;3.28;;
50379;SDS011;37474;59.468;18.040;2023-07-13T02:11:14;5.78;;;3.22;;
50379;SDS011;37474;59.468;18.040;2023-07-13T02:13:42;4.72;;;3.70;;
50379;SDS011;37474;59.468;18.040;2023-07-13T02:16:11;4.53;;;3.15;;
50379;SDS011;37474;59.468;18.040;2023-07-13T02:18:41;5.15;;;3.28;;
50379;SDS011;37474;59.468;18.040;2023-07-13T02:21:09;5.00;;;3.15;;
50379;SDS011;37474;59.468;18.040;2023-07-13T02:23:38;5.93;;;3.50;;
50379;SDS011;37474;59.468;18.040;2023-07-13T02:26:07;4.45;;;3.10;;
50379;SDS011;37474;59.468;18.040;2023-07-13T02:28:37;7.38;;;3.30;;
50379;SDS011;37474;59.468;18.040;2023-07-13T02:31:07;5.18;;;3.38;;
50379;SDS011;37474;59.468;18.040;2023-07-13T02:33:36;4.53;;;3.28;;
50379;SDS011;37474;59.468;18.040;2023-07-13T02:36:05;4.78;;;3.13;;
50379;SDS011;37474;59.468;18.040;2023-07-13T02:38:35;6.05;;;3.92;;
50379;SDS011;37474;59.468;18.040;2023-07-13T02:41:04;6.05;;;3.60;;
50379;SDS011;37474;59.468;18.040;2023-07-13T02:43:34;5.75;;;3.97;;
50379;SDS011;37474;59.468;18.040;2023-07-13T02:46:04;6.20;;;3.67;;
50379;SDS011;37474;59.468;18.040;2023-07-13T02:48:35;4.20;;;3.80;;
50379;SDS011;37474;59.468;18.040;2023-07-13T02:51:04;5.47;;;3.72;;
50379;SDS011;37474;59.468;18.040;2023-07-13T02:53:34;4.38;;;3.60;;
50379;SDS011;37474;59.468;18.040;2023-07-13T02:56:03;5.70;;;3.47;;
50379;SDS011;37474;59.468;18.040;2023-07-13T02:58:32;5.47;;;3.75;;
50379;SDS011;37474;59.468;18.040;2023-07-13T03:01:07;4.15;;;3.58;;
50379;SDS011;37474;59.468;18.040;2023-07-13T03:03:37;4.05;;;3.38;;
50379;SDS011;37474;59.468;18.040;2023-07-13T03:06:06;6.80;;;3.75;;
50379;SDS011;37474;59.468;18.040;2023-07-13T03:08:36;7.15;;;3.85;;
50379;SDS011;37474;59.468;18.040;2023-07-13T03:11:05;5.65;;;4.20;;
50379;SDS011;37474;59.468;18.040;2023-07-13T03:13:37;5.18;;;4.00;;
50379;SDS011;37474;59.468;18.040;2023-07-13T03:16:08;7.22;;;3.78;;
50379;SDS011;37474;59.468;18.040;2023-07-13T03:18:40;4.13;;;3.28;;
50379;SDS011;37474;59.468;18.040;2023-07-13T03:21:09;4.03;;;3.30;;
50379;SDS011;37474;59.468;18.040;2023-07-13T03:23:39;4.82;;;3.40;;
50379;SDS011;37474;59.468;18.040;2023-07-13T03:26:08;5.88;;;3.55;;
50379;SDS011;37474;59.468;18.040;2023-07-13T03:28:40;5.18;;;3.72;;
50379;SDS011;37474;59.468;18.040;2023-07-13T03:31:11;4.30;;;2.80;;
50379;SDS011;37474;59.468;18.040;2023-07-13T03:33:42;5.03;;;3.17;;
50379;SDS011;37474;59.468;18.040;2023-07-13T03:36:12;5.68;;;3.28;;
50379;SDS011;37474;59.468;18.040;2023-07-13T03:38:46;6.57;;;3.70;;
50379;SDS011;37474;59.468;18.040;2023-07-13T03:41:15;5.47;;;3.42;;
50379;SDS011;37474;59.468;18.040;2023-07-13T03:43:44;7.32;;;3.88;;
50379;SDS011;37474;59.468;18.040;2023-07-13T03:46:16;5.72;;;3.40;;
50379;SDS011;37474;59.468;18.040;2023-07-13T03:48:46;5.47;;;3.35;;
50379;SDS011;37474;59.468;18.040;2023-07-13T03:51:15;5.15;;;3.30;;
50379;SDS011;37474;59.468;18.040;2023-07-13T03:53:45;3.95;;;3.20;;
50379;SDS011;37474;59.468;18.040;2023-07-13T03:56:15;5.70;;;2.90;;
50379;SDS011;37474;59.468;18.040;2023-07-13T04:01:16;6.75;;;3.25;;
50379;SDS011;37474;59.468;18.040;2023-07-13T04:03:46;5.68;;;3.05;;
50379;SDS011;37474;59.468;18.040;2023-07-13T04:06:16;5.72;;;2.78;;
50379;SDS011;37474;59.468;18.040;2023-07-13T04:08:48;5.22;;;2.80;;
50379;SDS011;37474;59.468;18.040;2023-07-13T04:11:19;5.75;;;3.05;;
50379;SDS011;37474;59.468;18.040;2023-07-13T04:13:48;5.97;;;3.13;;
50379;SDS011;37474;59.468;18.040;2023-07-13T04:16:19;8.07;;;3.30;;
50379;SDS011;37474;59.468;18.040;2023-07-13T04:18:48;7.32;;;2.83;;
50379;SDS011;37474;59.468;18.040;2023-07-13T04:21:21;9.07;;;3.15;;
50379;SDS011;37474;59.468;18.040;2023-07-13T04:23:50;3.38;;;2.70;;
50379;SDS011;37474;59.468;18.040;2023-07-13T04:26:19;6.60;;;2.88;;
50379;SDS011;37474;59.468;18.040;2023-07-13T04:28:49;3.88;;;2.40;;
50379;SDS011;37474;59.468;18.040;2023-07-13T04:31:20;5.63;;;2.95;;
50379;SDS011;37474;59.468;18.040;2023-07-13T04:33:49;5.60;;;2.60;;
50379;SDS011;37474;59.468;18.040;2023-07-13T04:36:18;10.13;;;2.80;;
50379;SDS011;37474;59.468;18.040;2023-07-13T04:38:47;5.57;;;2.90;;
50379;SDS011;37474;59.468;18.040;2023-07-13T04:41:16;4.33;;;2.43;;
50379;SDS011;37474;59.468;18.040;2023-07-13T04:43:45;6.35;;;2.45;;
50379;SDS011;37474;59.468;18.040;2023-07-13T04:46:15;7.30;;;2.75;;
50379;SDS011;37474;59.468;18.040;2023-07-13T04:48:48;8.77;;;2.65;;
50379;SDS011;37474;59.468;18.040;2023-07-13T04:51:20;6.18;;;2.75;;
50379;SDS011;37474;59.468;18.040;2023-07-13T04:53:49;5.95;;;2.33;;
50379;SDS011;37474;59.468;18.040;2023-07-13T04:56:24;7.72;;;2.30;;
50379;SDS011;37474;59.468;18.040;2023-07-13T04:58:53;7.15;;;2.15;;
50379;SDS011;37474;59.468;18.040;2023-07-13T05:01:22;5.65;;;2.03;;
50379;SDS011;37474;59.468;18.040;2023-07-13T05:03:53;9.83;;;2.60;;
50379;SDS011;37474;59.468;18.040;2023-07-13T05:06:24;3.47;;;2.17;;
50379;SDS011;37474;59.468;18.040;2023-07-13T05:08:53;5.07;;;2.30;;
50379;SDS011;37474;59.468;18.040;2023-07-13T05:11:22;7.32;;;2.20;;
50379;SDS011;37474;59.468;18.040;2023-07-13T05:13:50;5.07;;;1.95;;
50379;SDS011;37474;59.468;18.040;2023-07-13T05:16:19;7.03;;;2.30;;
50379;SDS011;37474;59.468;18.040;2023-07-13T05:18:48;4.50;;;1.80;;
50379;SDS011;37474;59.468;18.040;2023-07-13T05:21:18;5.38;;;1.90;;
50379;SDS011;37474;59.468;18.040;2023-07-13T05:26:16;4.93;;;1.95;;
50379;SDS011;37474;59.468;18.040;2023-07-13T05:28:44;3.90;;;1.85;;
50379;SDS011;37474;59.468;18.040;2023-07-13T05:31:13;4.63;;;2.05;;
50379;SDS011;37474;59.468;18.040;2023-07-13T05:33:42;4.20;;;1.75;;
50379;SDS011;37474;59.468;18.040;2023-07-13T05:36:10;5.28;;;1.70;;
50379;SDS011;37474;59.468;18.040;2023-07-13T05:38:40;4.78;;;1.70;;
50379;SDS011;37474;59.468;18.040;2023-07-13T05:41:09;3.10;;;1.85;;
50379;SDS011;37474;59.468;18.040;2023-07-13T05:43:38;4.50;;;1.75;;
50379;SDS011;37474;59.468;18.040;2023-07-13T05:46:06;3.95;;;1.73;;
50379;SDS011;37474;59.468;18.040;2023-07-13T05:48:35;3.88;;;1.83;;
50379;SDS011;37474;59.468;18.040;2023-07-13T05:51:04;6.25;;;2.03;;
50379;SDS011;37474;59.468;18.040;2023-07-13T05:53:33;4.70;;;2.50;;
50379;SDS011;37474;59.468;18.040;2023-07-13T05:56:04;6.15;;;1.90;;
50379;SDS011;37474;59.468;18.040;2023-07-13T05:58:33;4.85;;;2.08;;
50379;SDS011;37474;59.468;18.040;2023-07-13T06:01:03;6.07;;;1.80;;
50379;SDS011;37474;59.468;18.040;2023-07-13T06:03:33;4.10;;;1.73;;
50379;SDS011;37474;59.468;18.040;2023-07-13T06:06:02;6.68;;;1.60;;
50379;SDS011;37474;59.468;18.040;2023-07-13T06:08:32;4.95;;;1.90;;
50379;SDS011;37474;59.468;18.040;2023-07-13T06:11:02;4.82;;;1.70;;
50379;SDS011;37474;59.468;18.040;2023-07-13T06:13:33;3.63;;;1.42;;
50379;SDS011;37474;59.468;18.040;2023-07-13T06:16:02;4.88;;;1.27;;
50379;SDS011;37474;59.468;18.040;2023-07-13T06:18:32;4.38;;;1.70;;
50379;SDS011;37474;59.468;18.040;2023-07-13T06:21:05;4.40;;;1.30;;
50379;SDS011;37474;59.468;18.040;2023-07-13T06:23:35;2.80;;;1.48;;
50379;SDS011;37474;59.468;18.040;2023-07-13T06:26:06;3.90;;;1.20;;
50379;SDS011;37474;59.468;18.040;2023-07-13T06:28:36;5.40;;;1.60;;
50379;SDS011;37474;59.468;18.040;2023-07-13T06:33:36;6.30;;;1.60;;
50379;SDS011;37474;59.468;18.040;2023-07-13T06:36:05;5.32;;;1.58;;
50379;SDS011;37474;59.468;18.040;2023-07-13T06:38:36;6.60;;;1.27;;
50379;SDS011;37474;59.468;18.040;2023-07-13T06:41:07;4.70;;;1.42;;
50379;SDS011;37474;59.468;18.040;2023-07-13T06:43:37;5.13;;;1.48;;
50379;SDS011;37474;59.468;18.040;2023-07-13T06:46:06;2.67;;;1.15;;
50379;SDS011;37474;59.468;18.040;2023-07-13T06:48:36;3.17;;;1.55;;
50379;SDS011;37474;59.468;18.040;2023-07-13T06:51:05;2.35;;;1.23;;
50379;SDS011;37474;59.468;18.040;2023-07-13T06:53:34;5.20;;;1.48;;
50379;SDS011;37474;59.468;18.040;2023-07-13T06:56:03;3.92;;;1.27;;
50379;SDS011;37474;59.468;18.040;2023-07-13T06:58:34;6.03;;;1.33;;
50379;SDS011;37474;59.468;18.040;2023-07-13T07:01:03;3.05;;;1.45;;
50379;SDS011;37474;59.468;18.040;2023-07-13T07:03:34;5.38;;;1.30;;
50379;SDS011;37474;59.468;18.040;2023-07-13T07:06:06;5.70;;;1.50;;
50379;SDS011;37474;59.468;18.040;2023-07-13T07:08:41;4.63;;;1.27;;
50379;SDS011;37474;59.468;18.040;2023-07-13T07:11:11;5.13;;;1.50;;
50379;SDS011;37474;59.468;18.040;2023-07-13T07:13:43;6.20;;;1.17;;
50379;SDS011;37474;59.468;18.040;2023-07-13T07:16:12;5.57;;;1.52;;
50379;SDS011;37474;59.468;18.040;2023-07-13T07:18:41;5.22;;;1.20;;
50379;SDS011;37474;59.468;18.040;2023-07-13T07:21:11;5.13;;;1.08;;
50379;SDS011;37474;59.468;18.040;2023-07-13T07:23:40;5.27;;;1.47;;
50379;SDS011;37474;59.468;18.040;2023-07-13T07:28:38;4.82;;;1.70;;
50379;SDS011;37474;59.468;18.040;2023-07-13T07:31:16;5.35;;;1.40;;
50379;SDS011;37474;59.468;18.040;2023-07-13T07:33:47;4.47;;;1.20;;
50379;SDS011;37474;59.468;18.040;2023-07-13T07:36:17;4.45;;;1.25;;
50379;SDS011;37474;59.468;18.040;2023-07-13T07:38:49;5.97;;;1.30;;
50379;SDS011;37474;59.468;18.040;2023-07-13T07:41:18;6.18;;;1.40;;
50379;SDS011;37474;59.468;18.040;2023-07-13T07:43:49;2.83;;;1.15;;
50379;SDS011;37474;59.468;18.040;2023-07-13T07:46:19;4.00;;;1.27;;
50379;SDS011;37474;59.468;18.040;2023-07-13T07:51:16;7.03;;;1.52;;
50379;SDS011;37474;59.468;18.040;2023-07-13T07:53:45;3.92;;;1.50;;
50379;SDS011;37474;59.468;18.040;2023-07-13T07:56:14;5.07;;;1.35;;
50379;SDS011;37474;59.468;18.040;2023-07-13T07:58:45;4.03;;;1.40;;
50379;SDS011;37474;59.468;18.040;2023-07-13T08:01:17;3.65;;;1.15;;
50379;SDS011;37474;59.468;18.040;2023-07-13T08:03:50;4.90;;;1.23;;
50379;SDS011;37474;59.468;18.040;2023-07-13T08:06:22;4.00;;;1.20;;
50379;SDS011;37474;59.468;18.040;2023-07-13T08:08:55;4.75;;;1.08;;
50379;SDS011;37474;59.468;18.040;2023-07-13T08:11:25;2.92;;;1.20;;
50379;SDS011;37474;59.468;18.040;2023-07-13T08:13:58;3.05;;;1.13;;
50379;SDS011;37474;59.468;18.040;2023-07-13T08:16:27;3.85;;;1.38;;
50379;SDS011;37474;59.468;18.040;2023-07-13T08:18:59;2.35;;;1.20;;
50379;SDS011;37474;59.468;18.040;2023-07-13T08:21:29;4.72;;;1.30;;
50379;SDS011;37474;59.468;18.040;2023-07-13T08:23:59;6.60;;;1.45;;
50379;SDS011;37474;59.468;18.040;2023-07-13T08:26:28;4.40;;;1.02;;
50379;SDS011;37474;59.468;18.040;2023-07-13T08:28:57;5.20;;;1.30;;
50379;SDS011;37474;59.468;18.040;2023-07-13T08:31:26;4.40;;;1.30;;
50379;SDS011;37474;59.468;18.040;2023-07-13T08:33:54;4.88;;;1.38;;
50379;SDS011;37474;59.468;18.040;2023-07-13T08:36:25;6.80;;;1.40;;
50379;SDS011;37474;59.468;18.040;2023-07-13T08:38:54;5.25;;;1.48;;
50379;SDS011;37474;59.468;18.040;2023-07-13T08:41:23;3.88;;;1.10;;
50379;SDS011;37474;59.468;18.040;2023-07-13T08:43:59;5.15;;;1.15;;
50379;SDS011;37474;59.468;18.040;2023-07-13T08:46:30;4.63;;;1.20;;
50379;SDS011;37474;59.468;18.040;2023-07-13T08:49:03;5.38;;;1.05;;
50379;SDS011;37474;59.468;18.040;2023-07-13T08:51:40;5.53;;;1.40;;
50379;SDS011;37474;59.468;18.040;2023-07-13T08:54:19;3.95;;;1.25;;
50379;SDS011;37474;59.468;18.040;2023-07-13T08:56:52;3.63;;;1.20;;
50379;SDS011;37474;59.468;18.040;2023-07-13T08:59:22;7.28;;;1.20;;
50379;SDS011;37474;59.468;18.040;2023-07-13T09:02:20;6.72;;;1.10;;
50379;SDS011;37474;59.468;18.040;2023-07-13T09:04:54;4.00;;;1.20;;
50379;SDS011;37474;59.468;18.040;2023-07-13T09:07:34;3.42;;;1.05;;
50379;SDS011;37474;59.468;18.040;2023-07-13T09:10:13;4.05;;;1.20;;
50379;SDS011;37474;59.468;18.040;2023-07-13T09:12:46;3.97;;;0.90;;
50379;SDS011;37474;59.468;18.040;2023-07-13T09:15:24;3.85;;;1.10;;
50379;SDS011;37474;59.468;18.040;2023-07-13T09:17:59;5.20;;;1.00;;
50379;SDS011;37474;59.468;18.040;2023-07-13T09:20:34;4.95;;;1.13;;
50379;SDS011;37474;59.468;18.040;2023-07-13T09:23:09;4.97;;;1.27;;
50379;SDS011;37474;59.468;18.040;2023-07-13T09:25:42;5.35;;;1.10;;
50379;SDS011;37474;59.468;18.040;2023-07-13T09:28:15;3.97;;;1.25;;
50379;SDS011;37474;59.468;18.040;2023-07-13T09:30:50;2.30;;;1.10;;
50379;SDS011;37474;59.468;18.040;2023-07-13T09:33:22;2.35;;;0.88;;
50379;SDS011;37474;59.468;18.040;2023-07-13T09:35:51;6.65;;;1.88;;
50379;SDS011;37474;59.468;18.040;2023-07-13T09:38:21;5.32;;;1.40;;
50379;SDS011;37474;59.468;18.040;2023-07-13T09:40:56;4.75;;;1.23;;
50379;SDS011;37474;59.468;18.040;2023-07-13T09:43:30;4.10;;;1.25;;
50379;SDS011;37474;59.468;18.040;2023-07-13T09:45:59;4.43;;;1.20;;
50379;SDS011;37474;59.468;18.040;2023-07-13T09:48:33;5.95;;;1.15;;
50379;SDS011;37474;59.468;18.040;2023-07-13T09:51:07;3.38;;;1.02;;
50379;SDS011;37474;59.468;18.040;2023-07-13T09:53:43;3.78;;;1.20;;
50379;SDS011;37474;59.468;18.040;2023-07-13T09:56:19;3.33;;;1.10;;
50379;SDS011;37474;59.468;18.040;2023-07-13T09:58:49;2.15;;;0.82;;
50379;SDS011;37474;59.468;18.040;2023-07-13T10:01:30;1.85;;;0.80;;
50379;SDS011;37474;59.468;18.040;2023-07-13T10:04:00;4.00;;;1.17;;
50379;SDS011;37474;59.468;18.040;2023-07-13T10:06:30;3.38;;;0.85;;
50379;SDS011;37474;59.468;18.040;2023-07-13T10:09:00;3.95;;;0.90;;
50379;SDS011;37474;59.468;18.040;2023-07-13T10:11:29;4.68;;;0.98;;
50379;SDS011;37474;59.468;18.040;2023-07-13T10:14:01;2.88;;;1.05;;
50379;SDS011;37474;59.468;18.040;2023-07-13T10:16:37;3.38;;;1.05;;
50379;SDS011;37474;59.468;18.040;2023-07-13T10:19:06;4.57;;;1.20;;
50379;SDS011;37474;59.468;18.040;2023-07-13T10:21:43;5.13;;;1.23;;
50379;SDS011;37474;59.468;18.040;2023-07-13T10:24:25;4.20;;;0.90;;
50379;SDS011;37474;59.468;18.040;2023-07-13T10:26:56;3.33;;;1.00;;
50379;SDS011;37474;59.468;18.040;2023-07-13T10:29:29;2.55;;;1.08;;
50379;SDS011;37474;59.468;18.040;2023-07-13T10:32:02;2.72;;;1.17;;
50379;SDS011;37474;59.468;18.040;2023-07-13T10:34:37;1.98;;;0.85;;
50379;SDS011;37474;59.468;18.040;2023-07-13T10:37:07;3.80;;;1.05;;
50379;SDS011;37474;59.468;18.040;2023-07-13T10:39:46;5.38;;;1.45;;
50379;SDS011;37474;59.468;18.040;2023-07-13T10:42:18;4.32;;;1.00;;
50379;SDS011;37474;59.468;18.040;2023-07-13T10:44:54;2.92;;;0.90;;
50379;SDS011;37474;59.468;18.040;2023-07-13T10:47:22;4.18;;;0.95;;
50379;SDS011;37474;59.468;18.040;2023-07-13T10:49:53;4.80;;;0.98;;
50379;SDS011;37474;59.468;18.040;2023-07-13T10:52:41;6.65;;;1.15;;
50379;SDS011;37474;59.468;18.040;2023-07-13T10:58:18;3.05;;;0.90;;
50379;SDS011;37474;59.468;18.040;2023-07-13T11:00:49;4.65;;;1.10;;
50379;SDS011;37474;59.468;18.040;2023-07-13T11:03:27;4.50;;;0.80;;
50379;SDS011;37474;59.468;18.040;2023-07-13T11:06:05;4.30;;;1.00;;
50379;SDS011;37474;59.468;18.040;2023-07-13T11:08:38;4.50;;;0.80;;
50379;SDS011;37474;59.468;18.040;2023-07-13T11:11:34;1.40;;;0.80;;
50379;SDS011;37474;59.468;18.040;2023-07-13T11:14:07;5.35;;;1.13;;
50379;SDS011;37474;59.468;18.040;2023-07-13T11:19:25;3.10;;;1.10;;
50379;SDS011;37474;59.468;18.040;2023-07-13T11:22:23;4.82;;;0.93;;
50379;SDS011;37474;59.468;18.040;2023-07-13T11:24:56;4.68;;;0.90;;
50379;SDS011;37474;59.468;18.040;2023-07-13T11:27:39;4.80;;;1.08;;
50379;SDS011;37474;59.468;18.040;2023-07-13T11:30:23;2.28;;;0.70;;
50379;SDS011;37474;59.468;18.040;2023-07-13T11:33:03;5.35;;;1.08;;
50379;SDS011;37474;59.468;18.040;2023-07-13T11:35:41;5.93;;;1.10;;
50379;SDS011;37474;59.468;18.040;2023-07-13T11:38:18;4.35;;;1.20;;
50379;SDS011;37474;59.468;18.040;2023-07-13T11:40:48;4.50;;;1.27;;
50379;SDS011;37474;59.468;18.040;2023-07-13T11:43:23;3.88;;;1.13;;
50379;SDS011;37474;59.468;18.040;2023-07-13T11:45:52;3.65;;;0.80;;
50379;SDS011;37474;59.468;18.040;2023-07-13T11:48:22;3.22;;;1.00;;
50379;SDS011;37474;59.468;18.040;2023-07-13T11:50:54;5.18;;;1.10;;
50379;SDS011;37474;59.468;18.040;2023-07-13T11:53:26;3.60;;;1.10;;
50379;SDS011;37474;59.468;18.040;2023-07-13T11:55:57;2.63;;;0.98;;
50379;SDS011;37474;59.468;18.040;2023-07-13T11:58:28;3.72;;;1.20;;
50379;SDS011;37474;59.468;18.040;2023-07-13T12:00:58;5.28;;;1.30;;
50379;SDS011;37474;59.468;18.040;2023-07-13T12:03:32;2.50;;;0.63;;
50379;SDS011;37474;59.468;18.040;2023-07-13T12:06:03;5.03;;;1.00;;
50379;SDS011;37474;59.468;18.040;2023-07-13T12:08:37;6.80;;;1.00;;
50379;SDS011;37474;59.468;18.040;2023-07-13T12:11:11;3.20;;;0.88;;
50379;SDS011;37474;59.468;18.040;2023-07-13T12:13:45;4.65;;;0.80;;
50379;SDS011;37474;59.468;18.040;2023-07-13T12:16:16;5.40;;;1.08;;
50379;SDS011;37474;59.468;18.040;2023-07-13T12:18:56;3.95;;;1.00;;
50379;SDS011;37474;59.468;18.040;2023-07-13T12:21:27;5.68;;;0.90;;
50379;SDS011;37474;59.468;18.040;2023-07-13T12:23:59;5.70;;;1.00;;
50379;SDS011;37474;59.468;18.040;2023-07-13T12:26:30;3.33;;;0.95;;
50379;SDS011;37474;59.468;18.040;2023-07-13T12:29:01;4.20;;;1.00;;
50379;SDS011;37474;59.468;18.040;2023-07-13T12:31:35;3.50;;;0.90;;
50379;SDS011;37474;59.468;18.040;2023-07-13T12:34:06;5.20;;;1.00;;
50379;SDS011;37474;59.468;18.040;2023-07-13T12:36:39;3.75;;;1.10;;
50379;SDS011;37474;59.468;18.040;2023-07-13T12:39:13;5.63;;;1.10;;
50379;SDS011;37474;59.468;18.040;2023-07-13T12:41:46;3.85;;;0.80;;
50379;SDS011;37474;59.468;18.040;2023-07-13T12:44:18;4.15;;;1.13;;
50379;SDS011;37474;59.468;18.040;2023-07-13T12:46:54;4.55;;;0.90;;
50379;SDS011;37474;59.468;18.040;2023-07-13T12:49:28;5.30;;;1.02;;
50379;SDS011;37474;59.468;18.040;2023-07-13T12:52:03;4.45;;;0.70;;
50379;SDS011;37474;59.468;18.040;2023-07-13T12:54:51;6.03;;;0.80;;
50379;SDS011;37474;59.468;18.040;2023-07-13T12:57:32;3.17;;;0.82;;
50379;SDS011;37474;59.468;18.040;2023-07-13T13:03:02;3.42;;;1.08;;
50379;SDS011;37474;59.468;18.040;2023-07-13T13:05:56;2.55;;;0.75;;
50379;SDS011;37474;59.468;18.040;2023-07-13T13:08:30;4.57;;;0.90;;
50379;SDS011;37474;59.468;18.040;2023-07-13T13:10:59;5.13;;;0.90;;
50379;SDS011;37474;59.468;18.040;2023-07-13T13:13:28;3.28;;;1.00;;
50379;SDS011;37474;59.468;18.040;2023-07-13T13:16:02;2.80;;;1.10;;
50379;SDS011;37474;59.468;18.040;2023-07-13T13:18:37;3.47;;;0.93;;
50379;SDS011;37474;59.468;18.040;2023-07-13T13:21:05;2.88;;;0.70;;
50379;SDS011;37474;59.468;18.040;2023-07-13T13:23:35;3.42;;;0.77;;
50379;SDS011;37474;59.468;18.040;2023-07-13T13:26:05;2.00;;;0.80;;
50379;SDS011;37474;59.468;18.040;2023-07-13T13:28:39;3.90;;;0.80;;
50379;SDS011;37474;59.468;18.040;2023-07-13T13:31:09;3.45;;;1.10;;
50379;SDS011;37474;59.468;18.040;2023-07-13T13:33:39;3.08;;;1.10;;
50379;SDS011;37474;59.468;18.040;2023-07-13T13:36:19;2.85;;;0.98;;
50379;SDS011;37474;59.468;18.040;2023-07-13T13:38:50;4.13;;;1.17;;
50379;SDS011;37474;59.468;18.040;2023-07-13T13:41:19;3.42;;;0.80;;
50379;SDS011;37474;59.468;18.040;2023-07-13T13:43:47;3.53;;;0.90;;
50379;SDS011;37474;59.468;18.040;2023-07-13T13:46:18;3.08;;;0.80;;
50379;SDS011;37474;59.468;18.040;2023-07-13T13:48:49;2.05;;;1.00;;
50379;SDS011;37474;59.468;18.040;2023-07-13T13:51:18;4.00;;;1.05;;
50379;SDS011;37474;59.468;18.040;2023-07-13T13:53:48;3.15;;;0.90;;
50379;SDS011;37474;59.468;18.040;2023-07-13T13:56:18;5.07;;;0.97;;
50379;SDS011;37474;59.468;18.040;2023-07-13T13:58:47;2.22;;;0.77;;
50379;SDS011;37474;59.468;18.040;2023-07-13T14:01:18;4.53;;;1.00;;
50379;SDS011;37474;59.468;18.040;2023-07-13T14:03:49;2.78;;;0.70;;
50379;SDS011;37474;59.468;18.040;2023-07-13T14:06:18;3.55;;;0.90;;
50379;SDS011;37474;59.468;18.040;2023-07-13T14:08:47;4.93;;;0.80;;
50379;SDS011;37474;59.468;18.040;2023-07-13T14:11:16;4.95;;;1.10;;
50379;SDS011;37474;59.468;18.040;2023-07-13T14:13:48;3.28;;;0.90;;
50379;SDS011;37474;59.468;18.040;2023-07-13T14:16:19;3.28;;;0.85;;
50379;SDS011;37474;59.468;18.040;2023-07-13T14:18:49;2.15;;;0.93;;
50379;SDS011;37474;59.468;18.040;2023-07-13T14:21:18;4.53;;;0.85;;
50379;SDS011;37474;59.468;18.040;2023-07-13T14:23:48;3.20;;;0.85;;
50379;SDS011;37474;59.468;18.040;2023-07-13T14:26:18;2.47;;;1.17;;
50379;SDS011;37474;59.468;18.040;2023-07-13T14:28:50;2.42;;;0.80;;
50379;SDS011;37474;59.468;18.040;2023-07-13T14:31:22;1.77;;;0.70;;
50379;SDS011;37474;59.468;18.040;2023-07-13T14:33:56;3.08;;;1.00;;
50379;SDS011;37474;59.468;18.040;2023-07-13T14:36:26;2.60;;;1.00;;
50379;SDS011;37474;59.468;18.040;2023-07-13T14:38:57;3.65;;;0.90;;
50379;SDS011;37474;59.468;18.040;2023-07-13T14:41:27;6.53;;;1.00;;
50379;SDS011;37474;59.468;18.040;2023-07-13T14:43:56;2.00;;;0.77;;
50379;SDS011;37474;59.468;18.040;2023-07-13T14:46:29;4.43;;;1.00;;
50379;SDS011;37474;59.468;18.040;2023-07-13T14:49:02;3.80;;;0.98;;
50379;SDS011;37474;59.468;18.040;2023-07-13T14:51:33;4.53;;;1.10;;
50379;SDS011;37474;59.468;18.040;2023-07-13T14:54:04;6.68;;;1.40;;
50379;SDS011;37474;59.468;18.040;2023-07-13T14:56:34;4.97;;;1.45;;
50379;SDS011;37474;59.468;18.040;2023-07-13T14:59:03;3.40;;;1.10;;
50379;SDS011;37474;59.468;18.040;2023-07-13T15:01:33;2.35;;;0.90;;
50379;SDS011;37474;59.468;18.040;2023-07-13T15:04:02;3.97;;;1.00;;
50379;SDS011;37474;59.468;18.040;2023-07-13T15:06:35;3.10;;;0.80;;
50379;SDS011;37474;59.468;18.040;2023-07-13T15:09:21;2.28;;;0.73;;
50379;SDS011;37474;59.468;18.040;2023-07-13T15:11:51;3.08;;;1.00;;
50379;SDS011;37474;59.468;18.040;2023-07-13T15:14:20;2.53;;;0.77;;
50379;SDS011;37474;59.468;18.040;2023-07-13T15:16:51;3.75;;;0.70;;
50379;SDS011;37474;59.468;18.040;2023-07-13T15:19:22;3.05;;;1.10;;
50379;SDS011;37474;59.468;18.040;2023-07-13T15:21:53;2.63;;;0.90;;
50379;SDS011;37474;59.468;18.040;2023-07-13T15:24:24;5.38;;;1.00;;